aviador You're here:

KAAO Decoded Metar

WICHITA/JABARA in KS, USA
Report Time2017-11-19 20:54:00
UTC Time2017-11-19 21:47:52
Flight Rules vfr VFR
Wind210° at 12 kt
W.Decomp.*RWY 18: 11.0 kt HW 4.9 kt RCW
W.Rank210° ranks 13
Current wind is above 210° avg. (10.3)
Visibility9999 m
Phenomena:N/A
Clouds:N/A
Expected CloudBase > 8,000 ft AGL from Temp-Dew spread
CeilingNone
Temp14°C (ISA +2)
Dew Point-6°C (25% RH)
AAT7.0°C
QNH1021 hPa
Density Alt1,430 ft
Elevation1,424 ft
Report Wrong Elevation
Raw Report
KAAO 192054Z AUTO 21012KT 10SM CLR 14/M06 A3014 RMK AO2 SLP210
T01441061 58035=

Extra information for KAAO:More info

Metar Taf Metar & Taf Last 4 Metars F.Rules Stats Wind Profile Meteogram Temp Stats Airport Information Weather charts Add Link Nearby VenuesMetar ALERT Operation Metar Decoded Social comments

AIRNAV info for KAAO